createdAt,value
2018-08-30T00:00:45.702Z,15.20
2018-08-30T00:03:15.085Z,15.20
2018-08-30T00:05:44.258Z,15.20
2018-08-30T00:08:13.479Z,15.20
2018-08-30T00:10:42.102Z,15.20
2018-08-30T00:13:10.780Z,15.20
2018-08-30T00:15:39.416Z,15.30
2018-08-30T00:18:08.034Z,15.30
2018-08-30T00:20:36.658Z,15.20
2018-08-30T00:23:05.545Z,15.20
2018-08-30T00:25:34.166Z,15.10
2018-08-30T00:28:02.784Z,15.20
2018-08-30T00:30:31.382Z,15.10
2018-08-30T00:33:00.016Z,15.10
2018-08-30T00:35:28.673Z,15.10
2018-08-30T00:37:57.322Z,15.10
2018-08-30T00:40:25.921Z,15.10
2018-08-30T00:42:54.588Z,15.10
2018-08-30T00:45:23.545Z,15.10
2018-08-30T00:47:52.167Z,15.10
2018-08-30T00:50:20.780Z,15.10
2018-08-30T00:52:49.396Z,15.10
2018-08-30T00:55:18.134Z,15.10
2018-08-30T00:57:46.731Z,15.10
2018-08-30T01:00:21.773Z,15.10
2018-08-30T01:02:50.436Z,15.10
2018-08-30T01:22:37.639Z,15.10
2018-08-30T01:25:06.402Z,15.10
2018-08-30T01:27:35.014Z,15.10
2018-08-30T01:30:03.635Z,15.10
2018-08-30T01:32:32.337Z,15.00
2018-08-30T01:35:00.945Z,15.00
2018-08-30T01:37:29.565Z,15.10
2018-08-30T01:39:58.134Z,15.10
2018-08-30T01:42:26.777Z,15.10
2018-08-30T01:44:55.424Z,15.10
2018-08-30T01:47:24.069Z,15.10
2018-08-30T01:49:52.789Z,15.10
2018-08-30T01:52:21.507Z,15.20
2018-08-30T01:54:50.048Z,15.20
2018-08-30T01:57:18.666Z,15.20
2018-08-30T01:59:47.265Z,15.00
2018-08-30T02:02:15.868Z,15.10
2018-08-30T02:04:59.039Z,15.10
2018-08-30T02:07:28.283Z,15.00
2018-08-30T02:09:56.896Z,15.00
2018-08-30T02:12:25.457Z,15.00
2018-08-30T02:14:54.119Z,14.90
2018-08-30T02:17:22.700Z,14.90
2018-08-30T02:19:51.336Z,14.90
2018-08-30T02:22:19.961Z,14.80
2018-08-30T02:24:49.543Z,14.90
2018-08-30T02:27:18.150Z,14.90
2018-08-30T02:29:46.792Z,14.90
2018-08-30T02:32:15.433Z,14.90
2018-08-30T02:34:44.046Z,14.90
2018-08-30T02:37:12.681Z,14.90
2018-08-30T02:39:41.366Z,14.90
2018-08-30T02:42:10.008Z,14.90
2018-08-30T02:44:38.657Z,14.90
2018-08-30T02:47:07.625Z,14.90
2018-08-30T02:49:36.283Z,14.90
2018-08-30T02:52:04.955Z,14.90
2018-08-30T02:54:33.742Z,14.80
2018-08-30T02:57:02.362Z,14.80
2018-08-30T02:59:30.970Z,14.80
2018-08-30T03:01:59.671Z,14.90
2018-08-30T03:04:28.284Z,14.80
2018-08-30T03:06:56.898Z,14.80
2018-08-30T03:09:25.992Z,14.80
2018-08-30T03:11:54.635Z,14.70
2018-08-30T03:14:23.286Z,14.80
2018-08-30T03:16:51.903Z,14.80
2018-08-30T03:39:50.193Z,14.60
2018-08-30T03:42:18.795Z,14.70
2018-08-30T03:44:47.481Z,14.60
2018-08-30T03:47:16.061Z,14.60
2018-08-30T03:49:44.677Z,14.60
2018-08-30T03:52:13.298Z,14.70
2018-08-30T03:54:41.934Z,14.70
2018-08-30T03:57:10.574Z,14.70
2018-08-30T03:59:39.184Z,14.60
2018-08-30T04:02:07.858Z,14.60
2018-08-30T04:04:36.468Z,14.60
2018-08-30T04:07:05.572Z,14.60
2018-08-30T04:09:34.180Z,14.60
2018-08-30T04:12:02.817Z,14.70
2018-08-30T04:14:31.465Z,14.70
2018-08-30T04:17:00.099Z,14.70
2018-08-30T04:19:28.690Z,14.70
2018-08-30T04:21:57.354Z,14.70
2018-08-30T04:24:25.982Z,14.70
2018-08-30T04:26:54.743Z,14.80
2018-08-30T04:29:23.337Z,14.90
2018-08-30T04:31:52.030Z,14.80
2018-08-30T04:34:20.636Z,14.80
2018-08-30T04:36:49.322Z,14.80
2018-08-30T04:39:17.928Z,14.80
2018-08-30T04:41:46.594Z,14.80
2018-08-30T04:44:15.280Z,14.70
2018-08-30T04:46:43.917Z,14.90
2018-08-30T04:49:13.177Z,14.90
2018-08-30T04:51:41.872Z,14.80
2018-08-30T04:54:10.566Z,14.80
2018-08-30T04:56:39.229Z,14.80
2018-08-30T04:59:07.849Z,14.80
2018-08-30T05:01:36.464Z,14.80
2018-08-30T05:04:05.379Z,14.80
2018-08-30T05:06:34.152Z,14.80
2018-08-30T05:09:02.963Z,14.80
2018-08-30T05:11:31.696Z,14.90
2018-08-30T05:14:00.326Z,14.90
2018-08-30T05:16:28.984Z,14.90
2018-08-30T05:18:57.613Z,14.80
2018-08-30T05:21:26.260Z,14.90
2018-08-30T05:23:54.915Z,14.90
2018-08-30T05:26:23.573Z,14.90
2018-08-30T05:28:52.242Z,14.90
2018-08-30T05:31:20.848Z,15.00
2018-08-30T05:33:49.576Z,14.90
2018-08-30T05:36:18.222Z,15.00
2018-08-30T05:38:46.904Z,14.90
2018-08-30T05:41:15.531Z,15.00
2018-08-30T05:43:44.213Z,14.90
2018-08-30T05:46:12.902Z,15.00
2018-08-30T05:48:41.507Z,15.20
2018-08-30T05:51:10.153Z,15.30
2018-08-30T05:53:38.756Z,15.30
2018-08-30T05:56:07.419Z,15.30
2018-08-30T05:58:36.090Z,15.40
2018-08-30T06:01:04.751Z,15.50
2018-08-30T06:03:33.357Z,15.40
2018-08-30T06:06:01.967Z,15.30
2018-08-30T06:08:30.630Z,15.40
2018-08-30T06:10:59.204Z,15.40
2018-08-30T06:13:27.833Z,15.50
2018-08-30T06:15:56.451Z,15.50
2018-08-30T06:18:25.092Z,15.60
2018-08-30T06:20:53.730Z,15.70
2018-08-30T06:23:22.377Z,15.50
2018-08-30T06:25:50.993Z,15.70
2018-08-30T06:28:19.698Z,15.60
2018-08-30T06:30:48.366Z,15.90
2018-08-30T06:33:17.052Z,16.10
2018-08-30T06:35:45.672Z,16.20
2018-08-30T06:38:14.293Z,16.00
2018-08-30T06:40:42.930Z,16.10
2018-08-30T06:43:11.580Z,16.00
2018-08-30T06:45:40.246Z,15.80
2018-08-30T06:48:08.941Z,15.80
2018-08-30T06:50:37.555Z,16.00
2018-08-30T06:53:06.368Z,16.00
2018-08-30T06:55:35.010Z,16.30
2018-08-30T06:58:03.674Z,16.40
2018-08-30T07:00:32.306Z,16.40
2018-08-30T07:03:00.975Z,16.20
2018-08-30T07:05:29.667Z,16.50
2018-08-30T07:07:58.384Z,16.70
2018-08-30T07:10:26.965Z,17.00
2018-08-30T07:12:55.572Z,17.00
2018-08-30T07:15:24.185Z,17.10
2018-08-30T07:17:52.856Z,17.20
2018-08-30T07:20:21.570Z,17.70
2018-08-30T07:22:50.222Z,18.00
2018-08-30T07:25:18.837Z,17.80
2018-08-30T07:27:47.466Z,17.50
2018-08-30T07:30:16.033Z,17.20
2018-08-30T07:32:44.670Z,17.20
2018-08-30T07:35:13.459Z,17.30
2018-08-30T07:37:41.954Z,17.10
2018-08-30T07:40:10.607Z,17.10
2018-08-30T07:42:39.216Z,17.00
2018-08-30T07:45:07.859Z,16.90
2018-08-30T07:47:36.465Z,17.10
2018-08-30T07:50:05.514Z,17.00
2018-08-30T07:52:34.103Z,16.90
2018-08-30T07:55:02.746Z,16.50
2018-08-30T07:57:31.407Z,16.50
2018-08-30T08:00:00.015Z,16.70
2018-08-30T08:02:28.607Z,16.70
2018-08-30T08:04:57.196Z,16.70
2018-08-30T08:07:25.905Z,16.80
2018-08-30T08:09:54.501Z,17.00
2018-08-30T08:12:23.081Z,17.20
2018-08-30T08:14:51.829Z,17.10
2018-08-30T08:17:20.438Z,16.80
2018-08-30T08:19:49.038Z,16.90
2018-08-30T08:22:17.664Z,16.90
2018-08-30T08:24:46.302Z,16.70
2018-08-30T08:27:14.845Z,16.50
2018-08-30T08:29:43.464Z,16.20
2018-08-30T08:32:12.076Z,16.10
2018-08-30T08:34:40.666Z,16.00
2018-08-30T08:37:09.411Z,15.80
2018-08-30T08:39:38.091Z,15.90
2018-08-30T08:42:06.691Z,15.90
2018-08-30T08:44:35.313Z,15.90
2018-08-30T08:47:04.009Z,15.90
2018-08-30T08:49:32.629Z,16.00
2018-08-30T08:52:01.234Z,15.80
2018-08-30T08:54:29.845Z,15.90
2018-08-30T08:56:58.457Z,15.80
2018-08-30T08:59:27.078Z,15.90
2018-08-30T09:01:55.716Z,16.00
2018-08-30T09:04:24.337Z,16.10
2018-08-30T09:06:52.964Z,16.10
2018-08-30T09:09:21.573Z,16.30
2018-08-30T09:11:50.198Z,16.40
2018-08-30T09:14:18.894Z,16.30
2018-08-30T09:16:47.491Z,16.40
2018-08-30T09:19:16.117Z,16.70
2018-08-30T09:24:38.358Z,17.20
2018-08-30T09:27:07.095Z,17.10
2018-08-30T09:29:35.823Z,17.30
2018-08-30T09:32:04.584Z,17.40
2018-08-30T09:34:33.286Z,17.50
2018-08-30T09:37:02.043Z,17.10
2018-08-30T09:39:30.713Z,17.10
2018-08-30T09:41:59.367Z,16.80
2018-08-30T09:44:28.090Z,16.60
2018-08-30T09:46:56.750Z,16.60
2018-08-30T09:49:25.500Z,16.60
2018-08-30T09:51:54.152Z,16.30
2018-08-30T09:54:22.896Z,16.50
2018-08-30T09:56:51.584Z,16.70
2018-08-30T09:59:20.228Z,16.70
2018-08-30T10:01:50.973Z,16.60
2018-08-30T10:04:20.461Z,16.70
2018-08-30T10:06:49.130Z,16.90
2018-08-30T10:09:17.834Z,16.80
2018-08-30T10:11:46.513Z,16.80
2018-08-30T10:14:15.203Z,16.70
2018-08-30T10:16:43.850Z,16.90
2018-08-30T10:19:12.778Z,17.00
2018-08-30T10:21:41.553Z,16.70
2018-08-30T10:24:10.263Z,16.50
2018-08-30T10:26:39.036Z,16.40
2018-08-30T10:29:08.213Z,16.20
2018-08-30T10:31:36.944Z,16.10
2018-08-30T10:34:05.849Z,15.90
2018-08-30T10:36:34.552Z,15.90
2018-08-30T10:39:03.371Z,15.80
2018-08-30T10:41:32.037Z,15.60
2018-08-30T10:44:00.808Z,15.50
2018-08-30T10:46:29.510Z,15.60
2018-08-30T10:48:58.176Z,15.60
2018-08-30T10:51:26.911Z,15.80
2018-08-30T10:53:55.564Z,16.00
2018-08-30T10:56:24.389Z,16.10
2018-08-30T10:58:53.050Z,16.20
2018-08-30T11:01:21.763Z,16.50
2018-08-30T11:03:50.584Z,17.10
2018-08-30T11:06:19.433Z,17.40
2018-08-30T11:08:48.129Z,17.60
2018-08-30T11:11:16.809Z,17.70
2018-08-30T11:13:45.685Z,18.10
2018-08-30T11:16:14.374Z,18.10
2018-08-30T11:18:43.110Z,18.00
2018-08-30T11:21:11.838Z,18.50
2018-08-30T11:23:40.505Z,18.50
2018-08-30T11:26:09.288Z,19.20
2018-08-30T11:28:37.992Z,19.30
2018-08-30T11:31:06.781Z,19.40
2018-08-30T11:33:35.460Z,20.00
2018-08-30T11:36:04.185Z,19.80
2018-08-30T11:38:32.901Z,19.60
2018-08-30T11:41:01.630Z,19.40
2018-08-30T13:52:55.578Z,17.40
2018-08-30T13:55:24.403Z,20.30
2018-08-30T13:57:53.320Z,20.70
2018-08-30T14:00:22.059Z,20.60
2018-08-30T14:02:50.459Z,20.90
2018-08-30T14:05:19.066Z,20.30
2018-08-30T14:07:47.672Z,20.30
2018-08-30T14:10:16.352Z,20.40
2018-08-30T14:12:45.204Z,20.60
2018-08-30T14:15:13.974Z,20.50
2018-08-30T14:17:42.216Z,20.60
2018-08-30T14:20:10.885Z,20.90
2018-08-30T14:22:39.570Z,20.90
2018-08-30T14:25:08.224Z,21.10
2018-08-30T14:27:36.893Z,21.20
2018-08-30T14:30:05.569Z,20.80
2018-08-30T14:32:34.251Z,20.90
2018-08-30T14:35:02.889Z,20.40
2018-08-30T14:37:31.541Z,20.40
2018-08-30T14:40:00.377Z,20.10
2018-08-30T14:42:29.036Z,20.20
2018-08-30T14:44:57.693Z,20.20
2018-08-30T14:47:26.502Z,20.30
2018-08-30T14:49:54.976Z,20.50
2018-08-30T14:52:23.628Z,20.30
2018-08-30T14:54:52.252Z,20.30
2018-08-30T14:57:20.915Z,20.40
2018-08-30T14:59:49.499Z,20.50
2018-08-30T15:02:18.150Z,20.50
2018-08-30T15:04:46.761Z,20.30
2018-08-30T15:07:15.397Z,19.70
2018-08-30T15:09:44.023Z,19.60
2018-08-30T15:12:12.689Z,19.70
2018-08-30T15:14:41.296Z,19.60
2018-08-30T15:17:10.026Z,19.60
2018-08-30T15:19:38.570Z,19.60
2018-08-30T15:22:07.276Z,19.50
2018-08-30T15:24:35.874Z,19.50
2018-08-30T15:27:04.636Z,19.30
2018-08-30T15:29:33.183Z,19.30
2018-08-30T15:32:01.815Z,19.30
2018-08-30T15:34:30.499Z,19.40
2018-08-30T15:36:59.175Z,19.10
2018-08-30T15:39:27.856Z,19.40
2018-08-30T15:41:56.490Z,19.50
2018-08-30T15:44:25.133Z,19.60
2018-08-30T15:46:53.785Z,19.60
2018-08-30T15:49:22.454Z,19.70
2018-08-30T15:51:51.054Z,19.80
2018-08-30T15:54:19.701Z,19.70
2018-08-30T15:56:48.318Z,19.60
2018-08-30T15:59:17.016Z,19.50
2018-08-30T16:01:45.682Z,19.50
2018-08-30T16:04:14.357Z,19.40
2018-08-30T16:06:43.095Z,19.30
2018-08-30T16:09:12.697Z,19.20
2018-08-30T16:11:41.777Z,19.20
2018-08-30T16:14:10.437Z,19.10
2018-08-30T16:16:39.103Z,19.20
2018-08-30T16:19:07.746Z,19.30
2018-08-30T16:21:36.428Z,19.10
2018-08-30T16:24:05.062Z,19.20
2018-08-30T16:26:33.689Z,19.00
2018-08-30T16:29:02.405Z,18.90
2018-08-30T16:31:31.036Z,18.90
2018-08-30T16:33:59.687Z,18.80
2018-08-30T16:36:28.321Z,18.80
2018-08-30T16:38:56.965Z,18.80
2018-08-30T16:41:25.659Z,18.80
2018-08-30T16:43:54.290Z,18.90
2018-08-30T16:46:22.922Z,18.70
2018-08-30T16:48:51.675Z,18.60
2018-08-30T16:51:20.268Z,18.50
2018-08-30T16:53:48.943Z,18.60
2018-08-30T16:56:17.629Z,18.20
2018-08-30T16:58:46.269Z,18.00
2018-08-30T17:01:14.892Z,18.20
2018-08-30T17:03:43.550Z,18.10
2018-08-30T17:06:12.182Z,18.00
2018-08-30T17:08:40.927Z,18.20
2018-08-30T17:11:09.543Z,18.10
2018-08-30T17:13:38.345Z,17.60
2018-08-30T17:16:06.963Z,17.50
2018-08-30T17:18:35.631Z,17.50
2018-08-30T17:21:04.339Z,17.40
2018-08-30T17:23:32.977Z,17.40
2018-08-30T17:26:01.617Z,17.40
2018-08-30T17:28:30.258Z,17.30
2018-08-30T17:30:58.977Z,17.30
2018-08-30T17:33:27.616Z,17.10
2018-08-30T17:35:56.256Z,17.00
2018-08-30T17:38:24.999Z,17.00
2018-08-30T17:40:53.668Z,16.90
2018-08-30T17:43:22.292Z,16.90
2018-08-30T17:45:51.337Z,16.60
2018-08-30T17:48:19.911Z,16.40
2018-08-30T17:50:48.722Z,16.20
2018-08-30T17:53:17.318Z,16.00
2018-08-30T17:55:46.036Z,15.90
2018-08-30T17:58:14.792Z,15.80
2018-08-30T18:00:43.578Z,15.80
2018-08-30T18:03:12.265Z,15.60
2018-08-30T18:05:41.018Z,15.50
2018-08-30T18:08:09.629Z,15.40
2018-08-30T18:10:38.262Z,15.30
2018-08-30T18:13:06.915Z,15.20
2018-08-30T18:15:35.555Z,15.10
2018-08-30T18:18:04.271Z,15.00
2018-08-30T18:20:32.905Z,15.00
2018-08-30T18:23:01.541Z,14.90
2018-08-30T18:25:30.241Z,14.90
2018-08-30T18:28:00.156Z,14.90
2018-08-30T18:30:28.874Z,14.80
2018-08-30T18:32:57.570Z,14.80
2018-08-30T18:35:26.245Z,14.80
2018-08-30T18:37:54.874Z,14.70
2018-08-30T18:40:23.537Z,14.70
2018-08-30T18:42:52.217Z,14.70
2018-08-30T18:45:20.857Z,14.80
2018-08-30T18:47:49.501Z,14.70
2018-08-30T18:50:18.114Z,14.70
2018-08-30T18:52:46.725Z,14.80
2018-08-30T18:55:15.457Z,14.80
2018-08-30T18:57:44.078Z,14.80
2018-08-30T19:00:12.708Z,14.70
2018-08-30T19:02:41.435Z,14.70
2018-08-30T19:05:10.073Z,14.70
2018-08-30T19:07:38.706Z,14.60
2018-08-30T19:10:07.442Z,14.70
2018-08-30T19:12:36.164Z,14.70
2018-08-30T19:15:10.127Z,14.90
2018-08-30T19:17:44.177Z,14.90
2018-08-30T19:20:12.895Z,15.00
2018-08-30T19:22:41.756Z,15.00
2018-08-30T19:25:13.820Z,15.10
2018-08-30T19:27:43.297Z,15.30
2018-08-30T19:30:17.224Z,15.20
2018-08-30T19:32:45.835Z,15.40
2018-08-30T19:35:21.316Z,15.30
2018-08-30T19:37:51.665Z,15.60
2018-08-30T19:40:27.115Z,15.70
2018-08-30T19:43:00.444Z,15.70
2018-08-30T19:45:29.979Z,15.80
2018-08-30T19:47:59.161Z,15.80
2018-08-30T19:50:28.526Z,15.80
2018-08-30T19:52:57.273Z,15.80
2018-08-30T19:55:25.913Z,15.70
2018-08-30T19:57:54.528Z,15.60
2018-08-30T20:00:23.496Z,15.60
2018-08-30T20:02:52.282Z,15.60
2018-08-30T20:05:20.990Z,15.60
2018-08-30T20:07:49.612Z,15.60
2018-08-30T20:10:18.296Z,15.50
2018-08-30T20:12:47.073Z,15.50
2018-08-30T20:15:15.691Z,15.50
2018-08-30T20:17:44.313Z,15.50
2018-08-30T20:20:12.903Z,15.50
2018-08-30T20:22:41.662Z,15.50
2018-08-30T20:25:10.288Z,15.60
2018-08-30T20:27:38.946Z,15.50
2018-08-30T20:30:07.625Z,15.40
2018-08-30T20:32:36.318Z,15.40
2018-08-30T20:35:05.050Z,15.30
2018-08-30T20:37:33.777Z,15.20
2018-08-30T20:40:02.417Z,15.20
2018-08-30T20:42:31.142Z,15.20
2018-08-30T20:44:59.785Z,15.20
2018-08-30T20:47:28.404Z,15.20
2018-08-30T20:49:57.092Z,15.20
2018-08-30T20:52:25.798Z,15.10
2018-08-30T20:54:54.415Z,15.10
2018-08-30T20:57:23.032Z,15.10
2018-08-30T20:59:51.740Z,15.00
2018-08-30T21:02:20.425Z,15.00
2018-08-30T21:04:49.000Z,15.00
2018-08-30T21:07:17.696Z,14.90
2018-08-30T21:09:46.314Z,15.00
2018-08-30T21:12:14.965Z,15.00
2018-08-30T21:14:43.654Z,15.00
2018-08-30T21:17:12.294Z,15.00
2018-08-30T21:19:41.181Z,15.00
2018-08-30T21:22:09.934Z,15.00
2018-08-30T21:24:38.557Z,15.00
2018-08-30T21:27:07.273Z,15.00
2018-08-30T21:29:35.933Z,14.90
2018-08-30T21:32:04.659Z,14.80
2018-08-30T21:34:33.278Z,14.90
2018-08-30T21:37:01.966Z,14.90
2018-08-30T21:39:30.585Z,14.80
2018-08-30T21:41:59.213Z,14.80
2018-08-30T21:44:27.886Z,14.70
2018-08-30T21:46:56.602Z,14.70
2018-08-30T21:49:25.333Z,14.70
2018-08-30T21:51:54.050Z,14.70
2018-08-30T21:54:22.697Z,14.70
2018-08-30T21:56:51.420Z,14.70
2018-08-30T21:59:20.070Z,14.60
2018-08-30T22:01:48.691Z,14.50
2018-08-30T22:04:17.389Z,14.50
2018-08-30T22:06:46.007Z,14.50
2018-08-30T22:09:14.687Z,14.40
2018-08-30T22:11:43.680Z,14.40
2018-08-30T22:14:12.512Z,14.40
2018-08-30T22:16:41.143Z,14.40
2018-08-30T22:19:09.800Z,14.40
2018-08-30T22:21:38.461Z,14.40
2018-08-30T22:24:07.121Z,14.40
2018-08-30T22:26:35.736Z,14.40
2018-08-30T22:29:04.450Z,14.30
2018-08-30T22:31:33.103Z,14.20
2018-08-30T22:34:01.745Z,14.20
2018-08-30T22:36:30.386Z,14.10
2018-08-30T22:38:59.045Z,14.10
2018-08-30T22:41:27.789Z,14.10
2018-08-30T22:43:56.459Z,14.10
2018-08-30T22:46:25.124Z,14.10
2018-08-30T22:48:53.784Z,14.10
2018-08-30T22:51:22.406Z,14.20
2018-08-30T22:53:51.072Z,14.10
2018-08-30T22:56:19.697Z,14.00
2018-08-30T22:58:48.345Z,13.90
2018-08-30T23:01:16.960Z,13.80
2018-08-30T23:03:45.621Z,13.60
2018-08-30T23:06:14.312Z,13.40
2018-08-30T23:08:43.018Z,13.30
2018-08-30T23:11:11.676Z,13.30
2018-08-30T23:13:40.332Z,13.20
2018-08-30T23:16:09.004Z,13.20
2018-08-30T23:18:37.677Z,13.30
2018-08-30T23:21:06.533Z,13.40
2018-08-30T23:23:35.225Z,13.60
2018-08-30T23:26:03.866Z,13.70
2018-08-30T23:28:32.512Z,13.70
2018-08-30T23:31:01.158Z,13.70
2018-08-30T23:33:29.813Z,13.70
2018-08-30T23:35:58.471Z,13.70
2018-08-30T23:38:27.170Z,13.80
2018-08-30T23:40:55.820Z,13.80
2018-08-30T23:43:24.477Z,13.80
2018-08-30T23:45:53.098Z,13.70
2018-08-30T23:48:21.756Z,13.70
2018-08-30T23:50:50.385Z,13.60
2018-08-30T23:53:19.016Z,13.60
2018-08-30T23:55:47.661Z,13.60
2018-08-30T23:58:27.520Z,13.60
